createdAt,value
2023-03-26T00:01:55.248Z,98656.34
2023-03-26T00:03:58.288Z,98659.75
2023-03-26T00:06:10.663Z,98627.34
2023-03-26T00:08:13.700Z,98622.28
2023-03-26T00:10:16.468Z,98646.19
2023-03-26T00:12:19.144Z,98625.69
2023-03-26T00:14:21.793Z,98618.34
2023-03-26T00:16:30.108Z,98626.91
2023-03-26T00:18:35.230Z,98636.94
2023-03-26T00:20:38.797Z,98611.03
2023-03-26T00:22:42.082Z,98619.47
2023-03-26T00:24:48.678Z,98620.00
2023-03-26T00:26:53.720Z,98628.94
2023-03-26T00:28:56.502Z,98579.31
2023-03-26T00:31:03.894Z,98625.44
2023-03-26T00:33:08.268Z,98622.16
2023-03-26T00:35:11.256Z,98611.59
2023-03-26T00:37:15.515Z,98655.13
2023-03-26T00:39:18.085Z,98600.47
2023-03-26T00:41:31.368Z,98636.97
2023-03-26T00:43:36.903Z,98636.66
2023-03-26T00:45:39.478Z,98656.19
2023-03-26T00:47:44.565Z,98577.28
2023-03-26T00:49:49.182Z,98600.31
2023-03-26T00:51:51.739Z,98620.53
2023-03-26T00:53:54.606Z,98608.59
2023-03-26T00:56:00.601Z,98636.25
2023-03-26T00:58:03.305Z,98606.44
2023-03-26T01:00:10.844Z,98585.25
2023-03-26T01:02:19.036Z,98589.88
2023-03-26T01:04:31.205Z,98592.88
2023-03-26T01:06:38.160Z,98573.03
2023-03-26T01:08:48.504Z,98643.69
2023-03-26T01:10:53.395Z,98584.41
2023-03-26T01:12:55.975Z,98584.28
2023-03-26T01:15:01.826Z,98592.94
2023-03-26T01:17:07.248Z,98596.63
2023-03-26T01:19:38.484Z,98560.03
2023-03-26T01:21:41.302Z,98598.94
2023-03-26T01:23:49.775Z,98592.44
2023-03-26T01:26:10.511Z,98580.91
2023-03-26T01:28:14.453Z,98609.41
2023-03-26T01:30:37.777Z,98605.47
2023-03-26T01:32:40.386Z,98632.19
2023-03-26T01:34:42.773Z,98633.28
2023-03-26T01:36:54.001Z,98631.53
2023-03-26T01:39:10.293Z,98587.22
2023-03-26T01:41:23.018Z,98580.03
2023-03-26T01:43:39.990Z,98636.53
2023-03-26T01:45:47.698Z,98597.22
2023-03-26T01:47:51.261Z,98625.16
2023-03-26T01:49:53.820Z,98608.63
2023-03-26T01:51:58.365Z,98594.41
2023-03-26T01:54:04.533Z,98564.06
2023-03-26T01:56:19.530Z,98584.66
2023-03-26T01:58:41.793Z,98604.88
2023-03-26T02:01:13.886Z,98615.69
2023-03-26T02:03:31.317Z,98534.53
2023-03-26T02:05:34.175Z,98611.50
2023-03-26T02:07:52.874Z,98594.13
2023-03-26T02:10:00.418Z,98593.59
2023-03-26T02:12:04.989Z,98603.38
2023-03-26T02:14:08.817Z,98586.16
2023-03-26T02:16:14.825Z,98568.53
2023-03-26T02:18:17.469Z,98554.84
2023-03-26T02:20:21.911Z,98574.50
2023-03-26T02:22:30.171Z,98632.50
2023-03-26T02:24:34.850Z,98592.66
2023-03-26T02:26:38.154Z,98581.41
2023-03-26T02:28:46.649Z,98591.03
2023-03-26T02:30:50.949Z,98583.69
2023-03-26T02:32:54.648Z,98556.44
2023-03-26T02:34:58.968Z,98556.59
2023-03-26T02:37:01.937Z,98571.78
2023-03-26T02:39:05.116Z,98597.41
2023-03-26T02:41:11.411Z,98606.63
2023-03-26T02:43:29.182Z,98555.69
2023-03-26T02:45:32.527Z,98562.59
2023-03-26T02:47:38.059Z,98556.06
2023-03-26T02:50:09.985Z,98562.63
2023-03-26T02:52:26.468Z,98534.41
2023-03-26T02:54:33.807Z,98588.88
2023-03-26T02:56:57.065Z,98602.72
2023-03-26T02:59:19.618Z,98567.59
2023-03-26T03:01:27.210Z,98535.22
2023-03-26T03:03:30.776Z,98558.28
2023-03-26T03:05:38.280Z,98550.25
2023-03-26T03:08:04.648Z,98565.69
2023-03-26T03:10:14.060Z,98546.88
2023-03-26T03:12:46.128Z,98571.16
2023-03-26T03:14:48.819Z,98569.94
2023-03-26T03:16:51.869Z,98584.84
2023-03-26T03:18:57.899Z,98550.13
2023-03-26T03:21:09.947Z,98549.03
2023-03-26T03:23:13.430Z,98544.44
2023-03-26T03:25:17.769Z,98553.25
2023-03-26T03:27:23.995Z,98570.34
2023-03-26T03:29:33.522Z,98580.38
2023-03-26T03:31:56.467Z,98572.22
2023-03-26T03:34:13.383Z,98507.31
2023-03-26T03:36:23.646Z,98554.59
2023-03-26T03:38:35.151Z,98560.97
2023-03-26T03:40:37.775Z,98577.63
2023-03-26T03:42:40.471Z,98555.69
2023-03-26T03:44:44.963Z,98513.28
2023-03-26T03:47:07.247Z,98529.84
2023-03-26T03:49:09.686Z,98541.19
2023-03-26T03:51:13.842Z,98564.75
2023-03-26T03:53:26.369Z,98565.31
2023-03-26T03:55:31.194Z,98529.03
2023-03-26T03:57:34.934Z,98575.31
2023-03-26T03:59:47.615Z,98583.88
2023-03-26T04:01:51.222Z,98585.22
2023-03-26T04:04:07.381Z,98585.75
2023-03-26T04:06:30.456Z,98607.72
2023-03-26T04:08:33.826Z,98591.84
2023-03-26T04:10:36.454Z,98586.72
2023-03-26T04:12:48.257Z,98594.31
2023-03-26T04:14:53.213Z,98586.56
2023-03-26T04:16:56.411Z,98535.25
2023-03-26T04:19:02.697Z,98560.00
2023-03-26T04:21:08.186Z,98554.47
2023-03-26T04:23:14.551Z,98556.91
2023-03-26T04:25:19.537Z,98585.34
2023-03-26T04:27:37.408Z,98559.06
2023-03-26T04:29:58.752Z,98579.53
2023-03-26T04:32:06.873Z,98574.22
2023-03-26T04:34:20.671Z,98616.91
2023-03-26T04:36:35.942Z,98548.03
2023-03-26T04:38:43.234Z,98600.50
2023-03-26T04:40:47.641Z,98557.94
2023-03-26T04:43:05.271Z,98592.22
2023-03-26T04:45:35.488Z,98617.72
2023-03-26T04:47:39.341Z,98573.09
2023-03-26T04:49:43.100Z,98568.63
2023-03-26T04:51:47.374Z,98542.34
2023-03-26T04:54:21.614Z,98590.41
2023-03-26T04:56:53.624Z,98620.75
2023-03-26T04:59:08.425Z,98593.09
2023-03-26T05:01:16.962Z,98561.66
2023-03-26T05:03:21.427Z,98563.56
2023-03-26T05:05:27.252Z,98539.28
2023-03-26T05:07:30.571Z,98585.22
2023-03-26T05:09:37.139Z,98583.19
2023-03-26T05:11:58.645Z,98598.53
2023-03-26T05:14:01.117Z,98544.72
2023-03-26T05:16:04.482Z,98625.28
2023-03-26T05:18:11.686Z,98581.22
2023-03-26T05:20:27.442Z,98587.84
2023-03-26T05:22:30.157Z,98535.69
2023-03-26T05:24:59.260Z,98617.81
2023-03-26T05:27:02.190Z,98540.31
2023-03-26T05:29:05.368Z,98617.97
2023-03-26T05:31:11.463Z,98575.56
2023-03-26T05:33:18.619Z,98565.28
2023-03-26T05:35:26.608Z,98535.72
2023-03-26T05:37:31.720Z,98590.63
2023-03-26T05:39:38.954Z,98578.69
2023-03-26T05:42:10.671Z,98557.19
2023-03-26T05:44:31.715Z,98550.69
2023-03-26T05:46:39.529Z,98589.03
2023-03-26T05:48:42.488Z,98543.09
2023-03-26T05:50:53.462Z,98568.00
2023-03-26T05:52:56.974Z,98553.09
2023-03-26T05:55:37.972Z,98573.16
2023-03-26T05:57:59.082Z,98574.50
2023-03-26T06:00:20.074Z,98535.09
2023-03-26T06:02:23.477Z,98624.53
2023-03-26T06:04:46.676Z,98538.47
2023-03-26T06:07:12.922Z,98577.78
2023-03-26T06:09:20.034Z,98544.44
2023-03-26T06:11:22.520Z,98589.44
2023-03-26T06:13:25.299Z,98562.47
2023-03-26T06:15:27.961Z,98577.50
2023-03-26T06:17:41.727Z,98588.34
2023-03-26T06:20:13.222Z,98604.31
2023-03-26T06:22:18.186Z,98608.50
2023-03-26T06:24:43.639Z,98607.72
2023-03-26T06:27:15.597Z,98621.66
2023-03-26T06:29:23.754Z,98608.38
2023-03-26T06:31:53.603Z,98566.41
2023-03-26T06:34:10.358Z,98556.88
2023-03-26T06:36:12.693Z,98602.09
2023-03-26T06:38:15.916Z,98627.44
2023-03-26T06:40:18.929Z,98602.63
2023-03-26T06:43:08.530Z,98555.88
2023-03-26T06:45:34.114Z,98602.28
2023-03-26T06:47:55.810Z,98618.13
2023-03-26T06:50:15.809Z,98612.81
2023-03-26T06:52:57.293Z,98642.34
2023-03-26T06:55:31.984Z,98577.59
2023-03-26T06:58:00.893Z,98558.47
2023-03-26T07:00:39.212Z,98651.97
2023-03-26T07:03:00.569Z,98602.97
2023-03-26T07:05:26.795Z,98605.34
2023-03-26T07:07:48.875Z,98621.00
2023-03-26T07:09:57.750Z,98635.34
2023-03-26T07:12:15.970Z,98594.22
2023-03-26T07:14:47.622Z,98625.75
2023-03-26T07:17:13.485Z,98603.34
2023-03-26T07:19:42.217Z,98617.56
2023-03-26T07:21:46.968Z,98631.34
2023-03-26T07:24:06.461Z,98605.53
2023-03-26T07:27:11.270Z,98647.16
2023-03-26T07:29:39.572Z,98622.22
2023-03-26T07:32:07.809Z,98611.22
2023-03-26T07:35:13.863Z,98654.97
2023-03-26T07:37:50.747Z,98615.22
2023-03-26T07:40:26.210Z,98655.88
2023-03-26T07:43:12.289Z,98609.63
2023-03-26T07:45:44.406Z,98616.06
2023-03-26T07:48:18.403Z,98578.38
2023-03-26T07:50:37.201Z,98607.56
2023-03-26T07:52:46.819Z,98595.63
2023-03-26T07:55:05.779Z,98639.16
2023-03-26T07:57:32.787Z,98644.25
2023-03-26T08:00:18.094Z,98639.72
2023-03-26T08:02:51.950Z,98596.03
2023-03-26T08:08:34.812Z,98620.19
2023-03-26T08:11:27.281Z,98634.72
2023-03-26T08:14:01.270Z,98628.59
2023-03-26T08:16:16.097Z,98617.03
2023-03-26T08:18:47.136Z,98632.13
2023-03-26T08:20:54.768Z,98592.59
2023-03-26T08:23:17.758Z,98620.84
2023-03-26T08:25:35.583Z,98614.84
2023-03-26T08:27:44.281Z,98618.16
2023-03-26T08:30:02.143Z,98584.00
2023-03-26T08:32:09.035Z,98610.03
2023-03-26T08:34:13.752Z,98586.75
2023-03-26T08:36:17.042Z,98598.00
2023-03-26T08:38:21.230Z,98614.81
2023-03-26T08:40:58.346Z,98585.50
2023-03-26T08:43:38.017Z,98602.50
2023-03-26T08:46:17.061Z,98631.88
2023-03-26T08:48:47.429Z,98586.00
2023-03-26T08:50:59.411Z,98594.75
2023-03-26T08:53:20.967Z,98623.50
2023-03-26T08:55:52.253Z,98563.16
2023-03-26T08:58:32.254Z,98619.97
2023-03-26T09:00:52.124Z,98565.84
2023-03-26T09:03:13.268Z,98622.16
2023-03-26T09:05:15.716Z,98621.38
2023-03-26T09:07:47.546Z,98617.84
2023-03-26T09:10:02.418Z,98619.78
2023-03-26T09:12:41.726Z,98585.22
2023-03-26T09:15:03.851Z,98623.97
2023-03-26T09:17:26.290Z,98612.28
2023-03-26T09:19:42.888Z,98587.97
2023-03-26T09:21:57.956Z,98613.66
2023-03-26T09:24:28.634Z,98607.75
2023-03-26T09:26:51.505Z,98605.88
2023-03-26T09:29:03.967Z,98586.63
2023-03-26T09:31:28.167Z,98605.25
2023-03-26T09:33:54.334Z,98601.72
2023-03-26T09:36:11.537Z,98603.16
2023-03-26T09:38:23.736Z,98605.75
2023-03-26T09:40:46.214Z,98593.13
2023-03-26T09:43:10.690Z,98596.19
2023-03-26T09:46:10.400Z,98595.72
2023-03-26T09:48:28.263Z,98602.19
2023-03-26T09:50:58.044Z,98572.38
2023-03-26T09:53:34.737Z,98577.56
2023-03-26T09:55:43.388Z,98583.38
2023-03-26T09:58:04.982Z,98588.56
2023-03-26T10:00:28.898Z,98555.16
2023-03-26T10:02:50.690Z,98585.78
2023-03-26T10:04:56.726Z,98600.88
2023-03-26T10:07:26.298Z,98591.47
2023-03-26T10:09:52.024Z,98594.06
2023-03-26T10:12:16.459Z,98588.91
2023-03-26T10:14:23.356Z,98598.88
2023-03-26T10:16:44.273Z,98596.28
2023-03-26T10:18:52.464Z,98545.34
2023-03-26T10:21:07.713Z,98589.94
2023-03-26T10:23:16.599Z,98593.34
2023-03-26T10:25:26.770Z,98590.47
2023-03-26T10:28:16.617Z,98596.13
2023-03-26T10:30:36.868Z,98587.88
2023-03-26T10:33:03.053Z,98586.91
2023-03-26T10:35:31.271Z,98585.94
2023-03-26T10:37:54.774Z,98562.31
2023-03-26T10:40:28.576Z,98549.03
2023-03-26T10:42:49.883Z,98579.66
2023-03-26T10:45:08.460Z,98586.78
2023-03-26T10:47:28.970Z,98586.28
2023-03-26T10:49:55.745Z,98573.66
2023-03-26T10:52:21.131Z,98542.25
2023-03-26T10:54:50.897Z,98520.53
2023-03-26T10:56:56.922Z,98529.88
2023-03-26T10:59:06.203Z,98553.16
2023-03-26T11:01:22.902Z,98501.69
2023-03-26T11:03:44.638Z,98542.44
2023-03-26T11:05:50.752Z,98543.56
2023-03-26T11:08:07.394Z,98509.69
2023-03-26T11:10:18.002Z,98541.25
2023-03-26T11:12:41.782Z,98529.28
2023-03-26T11:15:11.052Z,98539.75
2023-03-26T11:17:41.546Z,98542.94
2023-03-26T11:19:57.094Z,98519.94
2023-03-26T11:22:03.056Z,98528.25
2023-03-26T11:24:28.384Z,98525.28
2023-03-26T11:27:17.499Z,98526.19
2023-03-26T11:29:46.782Z,98518.84
2023-03-26T11:32:00.626Z,98494.06
2023-03-26T11:34:16.883Z,98493.22
2023-03-26T11:36:43.328Z,98447.63
2023-03-26T11:38:49.737Z,98501.34
2023-03-26T11:40:59.592Z,98455.28
2023-03-26T11:43:30.365Z,98475.56
2023-03-26T11:45:38.958Z,98478.19
2023-03-26T11:47:48.469Z,98482.03
2023-03-26T11:49:55.861Z,98452.38
2023-03-26T11:51:59.540Z,98452.88
2023-03-26T11:54:04.672Z,98458.59
2023-03-26T11:56:18.721Z,98492.09
2023-03-26T11:58:31.666Z,98445.41
2023-03-26T12:00:34.920Z,98464.59
2023-03-26T12:02:42.253Z,98460.53
2023-03-26T12:04:51.378Z,98467.09
2023-03-26T12:07:34.076Z,98482.72
2023-03-26T12:09:37.022Z,98475.31
2023-03-26T12:11:39.907Z,98458.13
2023-03-26T12:13:53.864Z,98455.84
2023-03-26T12:16:19.399Z,98444.97
2023-03-26T12:18:27.162Z,98442.22
2023-03-26T12:20:33.980Z,98471.81
2023-03-26T12:22:38.189Z,98472.88
2023-03-26T12:24:41.340Z,98440.03
2023-03-26T12:26:49.630Z,98445.34
2023-03-26T12:28:52.751Z,98460.59
2023-03-26T12:31:08.085Z,98458.94
2023-03-26T12:33:30.166Z,98394.38
2023-03-26T12:35:35.861Z,98438.81
2023-03-26T12:37:42.798Z,98463.63
2023-03-26T12:40:09.886Z,98474.28
2023-03-26T12:44:51.044Z,98476.28
2023-03-26T12:44:58.848Z,98439.13
2023-03-26T12:47:57.927Z,98438.84
2023-03-26T12:49:43.336Z,98404.28
2023-03-26T12:51:53.641Z,98424.31
2023-03-26T12:54:17.631Z,98442.09
2023-03-26T12:59:47.206Z,98429.41
2023-03-26T13:02:08.187Z,98422.06
2023-03-26T13:02:24.103Z,98408.44
2023-03-26T13:04:34.486Z,98400.47
2023-03-26T13:07:00.653Z,98359.25
2023-03-26T13:09:25.739Z,98350.28
2023-03-26T13:11:54.219Z,98358.09
2023-03-26T13:14:15.252Z,98387.41
2023-03-26T13:16:30.216Z,98353.59
2023-03-26T13:18:56.019Z,98380.78
2023-03-26T13:21:11.805Z,98394.59
2023-03-26T13:23:38.912Z,98390.09
2023-03-26T13:26:00.014Z,98391.53
2023-03-26T13:28:17.657Z,98386.75
2023-03-26T13:30:37.420Z,98366.94
2023-03-26T13:33:12.786Z,98384.00
2023-03-26T13:35:50.377Z,98380.00
2023-03-26T13:38:02.546Z,98381.16
2023-03-26T13:40:25.250Z,98372.47
2023-03-26T13:42:59.601Z,98357.81
2023-03-26T13:45:10.352Z,98352.63
2023-03-26T13:47:49.181Z,98371.84
2023-03-26T13:49:59.138Z,98302.16
2023-03-26T13:52:23.358Z,98343.84
2023-03-26T13:54:34.937Z,98359.78
2023-03-26T13:56:43.962Z,98331.72
2023-03-26T13:59:02.682Z,98361.81
2023-03-26T14:01:17.028Z,98328.28
2023-03-26T14:03:43.347Z,98326.91
2023-03-26T14:05:51.292Z,98318.56
2023-03-26T14:07:58.753Z,98357.09
2023-03-26T14:10:10.492Z,98355.53
2023-03-26T14:12:49.389Z,98329.91
2023-03-26T14:14:54.408Z,98352.13
2023-03-26T14:17:03.392Z,98355.78
2023-03-26T14:19:27.898Z,98360.81
2023-03-26T14:21:34.360Z,98367.56
2023-03-26T14:24:09.668Z,98344.75
2023-03-26T14:26:30.523Z,98360.84
2023-03-26T14:28:41.935Z,98356.03
2023-03-26T14:30:56.851Z,98336.13
2023-03-26T14:33:27.486Z,98293.25
2023-03-26T14:35:43.693Z,98340.22
2023-03-26T14:38:04.518Z,98337.88
2023-03-26T14:40:26.212Z,98329.66
2023-03-26T14:42:42.686Z,98332.97
2023-03-26T14:45:17.512Z,98311.22
2023-03-26T14:47:22.827Z,98287.03
2023-03-26T14:49:46.311Z,98319.63
2023-03-26T14:52:21.490Z,98319.16
2023-03-26T14:54:28.688Z,98307.84
2023-03-26T14:56:34.007Z,98322.06
2023-03-26T14:58:57.693Z,98326.22
2023-03-26T15:01:28.678Z,98301.78
2023-03-26T15:04:03.314Z,98303.38
2023-03-26T15:06:39.634Z,98307.06
2023-03-26T15:09:13.542Z,98244.44
2023-03-26T15:11:27.578Z,98301.34
2023-03-26T15:13:42.568Z,98296.94
2023-03-26T15:16:06.728Z,98304.69
2023-03-26T15:18:25.923Z,98271.97
2023-03-26T15:20:56.158Z,98309.88
2023-03-26T15:23:26.517Z,98295.88
2023-03-26T15:25:41.272Z,98301.81
2023-03-26T15:28:22.849Z,98305.03
2023-03-26T15:31:07.097Z,98298.03
2023-03-26T15:33:35.304Z,98297.50
2023-03-26T15:35:43.927Z,98273.47
2023-03-26T15:38:24.807Z,98288.09
2023-03-26T15:40:48.250Z,98263.72
2023-03-26T15:43:11.658Z,98286.38
2023-03-26T15:45:41.742Z,98249.38
2023-03-26T15:48:15.621Z,98277.34
2023-03-26T15:51:46.206Z,98271.44
2023-03-26T15:53:59.676Z,98265.22
2023-03-26T15:56:18.234Z,98229.69
2023-03-26T15:58:26.921Z,98265.97
2023-03-26T16:00:34.793Z,98237.66
2023-03-26T16:02:44.079Z,98250.28
2023-03-26T16:05:17.144Z,98253.22
2023-03-26T16:07:53.473Z,98259.50
2023-03-26T16:10:22.931Z,98260.09
2023-03-26T16:13:00.167Z,98250.16
2023-03-26T16:15:36.268Z,98254.25
2023-03-26T16:18:19.867Z,98249.22
2023-03-26T16:20:33.468Z,98219.72
2023-03-26T16:22:58.351Z,98221.53
2023-03-26T16:25:29.220Z,98252.63
2023-03-26T16:27:34.799Z,98222.00
2023-03-26T16:30:08.472Z,98252.59
2023-03-26T16:32:29.624Z,98220.66
2023-03-26T16:35:01.034Z,98225.69
2023-03-26T16:37:09.864Z,98220.19
2023-03-26T16:39:19.966Z,98224.69
2023-03-26T16:41:31.370Z,98257.91
2023-03-26T16:43:52.002Z,98225.25
2023-03-26T16:46:14.266Z,98263.97
2023-03-26T16:48:36.485Z,98264.38
2023-03-26T16:50:57.354Z,98247.22
2023-03-26T16:53:34.999Z,98260.31
2023-03-26T16:55:53.810Z,98234.03
2023-03-26T16:58:14.920Z,98264.06
2023-03-26T17:00:26.560Z,98259.91
2023-03-26T17:02:42.018Z,98268.03
2023-03-26T17:04:49.127Z,98236.47
2023-03-26T17:07:30.595Z,98191.44
2023-03-26T17:10:20.457Z,98256.25
2023-03-26T17:12:56.161Z,98274.19
2023-03-26T17:15:19.517Z,98258.50
2023-03-26T17:17:53.000Z,98257.53
2023-03-26T17:20:35.298Z,98264.19
2023-03-26T17:22:50.679Z,98267.91
2023-03-26T17:25:21.808Z,98253.69
2023-03-26T17:28:09.438Z,98280.22
2023-03-26T17:30:44.874Z,98273.91
2023-03-26T17:33:29.149Z,98285.91
2023-03-26T17:35:38.281Z,98270.69
2023-03-26T17:37:48.120Z,98289.13
2023-03-26T17:39:51.536Z,98289.44
2023-03-26T17:42:03.756Z,98278.63
2023-03-26T17:44:37.132Z,98290.44
2023-03-26T17:46:45.987Z,98237.41
2023-03-26T17:49:19.747Z,98228.03
2023-03-26T17:51:38.872Z,98287.84
2023-03-26T17:53:43.034Z,98274.09
2023-03-26T17:55:51.194Z,98243.22
2023-03-26T17:57:59.445Z,98278.63
2023-03-26T18:00:07.958Z,98243.03
2023-03-26T18:02:21.286Z,98274.72
2023-03-26T18:04:40.386Z,98290.09
2023-03-26T18:07:20.097Z,98299.13
2023-03-26T18:09:29.145Z,98290.09
2023-03-26T18:11:59.105Z,98277.63
2023-03-26T18:14:27.466Z,98299.78
2023-03-26T18:16:33.757Z,98286.22
2023-03-26T18:18:46.551Z,98286.53
2023-03-26T18:20:51.428Z,98282.63
2023-03-26T18:22:54.943Z,98279.88
2023-03-26T18:25:01.353Z,98209.84
2023-03-26T18:27:13.371Z,98255.97
2023-03-26T18:29:31.515Z,98259.50
2023-03-26T18:31:42.234Z,98283.91
2023-03-26T18:33:47.964Z,98223.41
2023-03-26T18:35:56.846Z,98192.50
2023-03-26T18:38:00.449Z,98246.72
2023-03-26T18:40:16.117Z,98286.16
2023-03-26T18:42:25.205Z,98249.44
2023-03-26T18:44:36.492Z,98279.34
2023-03-26T18:46:39.226Z,98218.66
2023-03-26T18:48:44.848Z,98236.00
2023-03-26T18:50:53.795Z,98272.88
2023-03-26T18:53:00.638Z,98204.75
2023-03-26T18:55:04.212Z,98239.56
2023-03-26T18:57:15.990Z,98279.50
2023-03-26T18:59:35.497Z,98205.38
2023-03-26T19:01:47.304Z,98234.97
2023-03-26T19:03:50.821Z,98247.13
2023-03-26T19:05:57.050Z,98255.25
2023-03-26T19:08:04.217Z,98268.50
2023-03-26T19:10:08.466Z,98188.91
2023-03-26T19:12:43.238Z,98260.56
2023-03-26T19:15:09.012Z,98223.97
2023-03-26T19:17:12.315Z,98217.50
2023-03-26T19:19:23.470Z,98261.22
2023-03-26T19:21:26.689Z,98165.44
2023-03-26T19:23:42.007Z,98248.94
2023-03-26T19:25:55.162Z,98245.97
2023-03-26T19:27:59.770Z,98229.13
2023-03-26T19:30:03.950Z,98231.06
2023-03-26T19:32:18.674Z,98184.16
2023-03-26T19:34:39.212Z,98247.88
2023-03-26T19:37:02.268Z,98243.38
2023-03-26T19:39:14.660Z,98223.31
2023-03-26T19:41:42.781Z,98213.59
2023-03-26T19:43:53.407Z,98227.53
2023-03-26T19:46:02.381Z,98204.88
2023-03-26T19:48:15.562Z,98186.78
2023-03-26T19:50:23.840Z,98224.41
2023-03-26T19:52:36.535Z,98200.00
2023-03-26T19:55:03.099Z,98166.34
2023-03-26T19:57:06.034Z,98179.44
2023-03-26T19:59:09.169Z,98170.53
2023-03-26T20:01:32.530Z,98221.97
2023-03-26T20:03:43.125Z,98221.84
2023-03-26T20:05:46.805Z,98199.69
2023-03-26T20:07:53.716Z,98133.69
2023-03-26T20:09:57.113Z,98183.84
2023-03-26T20:12:01.314Z,98175.91
2023-03-26T20:14:18.463Z,98191.41
2023-03-26T20:16:27.530Z,98139.66
2023-03-26T20:18:30.428Z,98195.78
2023-03-26T20:20:34.838Z,98138.88
2023-03-26T20:22:38.032Z,98159.94
2023-03-26T20:24:45.301Z,98149.75
2023-03-26T20:26:48.831Z,98159.94
2023-03-26T20:28:53.376Z,98162.34
2023-03-26T20:30:57.356Z,98168.19
2023-03-26T20:33:12.143Z,98125.50
2023-03-26T20:35:20.899Z,98149.56
2023-03-26T20:37:40.249Z,98172.88
2023-03-26T20:39:46.677Z,98174.63
2023-03-26T20:41:50.797Z,98125.63
2023-03-26T20:43:54.032Z,98155.19
2023-03-26T20:45:59.426Z,98116.56
2023-03-26T20:48:03.184Z,98124.03
2023-03-26T20:50:07.034Z,98148.28
2023-03-26T20:52:13.867Z,98153.00
2023-03-26T20:54:18.473Z,98172.66
2023-03-26T20:56:23.818Z,98167.69
2023-03-26T20:58:31.507Z,98120.97
2023-03-26T21:00:35.084Z,98136.31
2023-03-26T21:02:39.237Z,98136.97
2023-03-26T21:04:43.574Z,98167.50
2023-03-26T21:06:46.366Z,98072.13
2023-03-26T21:08:49.322Z,98135.00
2023-03-26T21:10:52.212Z,98154.28
2023-03-26T21:13:06.402Z,98159.09
2023-03-26T21:15:22.482Z,98135.97
2023-03-26T21:17:27.455Z,98155.03
2023-03-26T21:19:30.743Z,98115.25
2023-03-26T21:21:46.539Z,98167.47
2023-03-26T21:24:19.083Z,98124.75
2023-03-26T21:26:41.628Z,98153.44
2023-03-26T21:28:48.208Z,98130.81
2023-03-26T21:30:51.444Z,98092.19
2023-03-26T21:32:54.885Z,98125.00
2023-03-26T21:34:59.506Z,98098.84
2023-03-26T21:37:05.168Z,98131.97
2023-03-26T21:39:08.343Z,98093.19
2023-03-26T21:41:31.666Z,98129.88
2023-03-26T21:43:34.516Z,98104.81
2023-03-26T21:45:39.069Z,98076.91
2023-03-26T21:47:43.324Z,98082.84
2023-03-26T21:49:46.247Z,98078.47
2023-03-26T21:51:49.269Z,98124.50
2023-03-26T21:53:53.161Z,98038.34
2023-03-26T21:56:26.108Z,98111.22
2023-03-26T21:59:02.842Z,98127.13
2023-03-26T22:01:08.645Z,98104.72
2023-03-26T22:03:40.425Z,98101.09
2023-03-26T22:06:07.539Z,98123.41
2023-03-26T22:08:30.876Z,98106.00
2023-03-26T22:10:33.614Z,98098.28
2023-03-26T22:12:37.519Z,98112.88
2023-03-26T22:14:41.423Z,98114.47
2023-03-26T22:16:44.444Z,98084.41
2023-03-26T22:18:48.897Z,98116.75
2023-03-26T22:20:52.105Z,98108.81
2023-03-26T22:22:55.423Z,98044.69
2023-03-26T22:24:58.193Z,98137.94
2023-03-26T22:27:04.032Z,98125.50
2023-03-26T22:29:06.934Z,98100.09
2023-03-26T22:31:10.048Z,98092.81
2023-03-26T22:33:13.098Z,98118.84
2023-03-26T22:35:16.407Z,98058.66
2023-03-26T22:37:20.442Z,98099.56
2023-03-26T22:39:23.338Z,98105.53
2023-03-26T22:41:26.224Z,98105.38
2023-03-26T22:43:28.978Z,98059.81
2023-03-26T22:45:31.710Z,98117.22
2023-03-26T22:47:35.765Z,98092.16
2023-03-26T22:49:40.521Z,98087.59
2023-03-26T22:51:46.290Z,98078.13
2023-03-26T22:53:49.740Z,98082.16
2023-03-26T22:55:53.040Z,98112.56
2023-03-26T22:57:55.874Z,98118.06
2023-03-26T23:00:13.047Z,98090.94
2023-03-26T23:02:17.680Z,98078.94
2023-03-26T23:04:30.904Z,98032.91
2023-03-26T23:06:34.852Z,98080.25
2023-03-26T23:08:39.290Z,98042.16
2023-03-26T23:10:43.060Z,98103.56
2023-03-26T23:12:45.874Z,98030.81
2023-03-26T23:14:52.589Z,98061.56
2023-03-26T23:16:55.875Z,98068.00
2023-03-26T23:19:00.442Z,98101.34
2023-03-26T23:21:04.252Z,98085.19
2023-03-26T23:23:14.915Z,98071.44
2023-03-26T23:25:19.301Z,98088.41
2023-03-26T23:27:22.792Z,98064.97
2023-03-26T23:29:25.555Z,98067.69
2023-03-26T23:31:29.095Z,98080.47
2023-03-26T23:33:35.606Z,98087.09
2023-03-26T23:35:38.269Z,98068.81
2023-03-26T23:37:42.747Z,98106.00
2023-03-26T23:39:47.104Z,98094.47
2023-03-26T23:41:52.331Z,98080.75
2023-03-26T23:44:40.305Z,98078.94
2023-03-26T23:47:06.103Z,98047.59
2023-03-26T23:49:36.048Z,98106.03
2023-03-26T23:51:43.910Z,98078.41
2023-03-26T23:54:52.585Z,98097.00
2023-03-26T23:57:11.036Z,98008.09
2023-03-26T23:59:19.894Z,98024.41
